Time;durP1;ratioP1;P1;durP2;ratioP2;P2;SDS_P1;SDS_P2;PMS_P1;PMS_P2;Temp;Humidity;BMP_temperature;BMP_pressure;BME280_temperature;BME280_humidity;BME280_pressure;Samples;Min_cycle;Max_cycle;Signal;HPM_P1;HPM_P2
2022/02/26 00:01:41;;;;;;;16.75;7.95;;;;;;;3.09;74.19;101775.38;5015956;28;20054;-82
2022/02/26 00:04:09;;;;;;;18.60;7.63;;;;;;;3.07;74.07;101777.50;5020655;28;20057;-80
2022/02/26 00:06:37;;;;;;;19.25;9.32;;;;;;;3.00;74.30;101787.75;5021502;28;20054;-80
2022/02/26 00:09:06;;;;;;;23.30;11.88;;;;;;;3.00;74.40;101793.25;5020120;28;20427;-81
2022/02/26 00:11:34;;;;;;;17.67;8.02;;;;;;;3.00;74.98;101790.50;5017580;28;20042;-81
2022/02/26 00:14:02;;;;;;;22.75;9.80;;;;;;;3.01;74.85;101795.78;5020669;28;20061;-81
2022/02/26 00:16:32;;;;;;;17.52;8.05;;;;;;;3.10;75.05;101781.72;5002036;28;20055;-80
2022/02/26 00:19:01;;;;;;;13.52;8.27;;;;;;;3.20;74.82;101785.59;5002227;28;20066;-81
2022/02/26 00:21:28;;;;;;;17.20;8.05;;;;;;;3.22;74.87;101797.19;5012222;28;20492;-81
2022/02/26 00:23:56;;;;;;;20.75;10.18;;;;;;;3.22;74.59;101797.19;5004514;28;20050;-81
2022/02/26 00:26:26;;;;;;;24.30;9.07;;;;;;;3.23;74.40;101793.41;5016529;28;20058;-81
2022/02/26 00:28:54;;;;;;;14.35;7.70;;;;;;;3.24;74.45;101786.81;5007776;28;20066;-82
2022/02/26 00:31:22;;;;;;;16.98;7.80;;;;;;;3.22;74.35;101791.69;5012658;28;20375;-80
2022/02/26 00:33:49;;;;;;;16.67;8.18;;;;;;;3.16;74.00;101800.88;5003186;28;20065;-82
2022/02/26 00:36:20;;;;;;;19.20;9.48;;;;;;;3.17;73.88;101813.59;5004044;28;20058;-82
2022/02/26 00:38:48;;;;;;;18.80;9.13;;;;;;;3.14;73.80;101813.22;5012368;28;20046;-80
2022/02/26 00:41:15;;;;;;;17.67;8.57;;;;;;;3.03;73.78;101807.41;5007884;28;20073;-82
2022/02/26 00:43:43;;;;;;;15.95;8.02;;;;;;;3.01;73.40;101816.97;5003981;28;20054;-81
2022/02/26 00:46:10;;;;;;;15.80;8.35;;;;;;;2.94;73.67;101822.56;5003318;28;20061;-81
2022/02/26 00:51:25;;;;;;;19.50;9.13;;;;;;;2.78;73.69;101835.00;5022751;28;20065;-82
2022/02/26 00:53:52;;;;;;;18.50;8.77;;;;;;;2.78;74.17;101828.69;5023575;28;20072;-81
2022/02/26 00:56:20;;;;;;;20.83;9.52;;;;;;;2.77;73.92;101832.47;5022555;28;20491;-82
2022/02/26 00:58:47;;;;;;;20.20;8.75;;;;;;;2.75;73.54;101838.25;5023867;28;20049;-81
2022/02/26 01:01:15;;;;;;;15.07;7.95;;;;;;;2.69;73.82;101839.16;5022881;28;20391;-81
2022/02/26 01:03:42;;;;;;;18.63;9.45;;;;;;;2.68;74.25;101848.44;5022852;28;20054;-82
2022/02/26 01:06:09;;;;;;;21.05;8.82;;;;;;;2.71;74.18;101848.00;5022323;28;20060;-81
2022/02/26 01:08:38;;;;;;;14.70;8.18;;;;;;;2.69;74.67;101858.41;5022326;28;20060;-81
2022/02/26 01:11:06;;;;;;;14.13;8.90;;;;;;;2.68;73.91;101864.97;5020076;28;20049;-80
2022/02/26 01:13:33;;;;;;;18.08;9.63;;;;;;;2.71;73.95;101866.41;5020869;28;20058;-81
2022/02/26 01:16:01;;;;;;;20.85;10.07;;;;;;;2.72;74.16;101870.84;5010137;28;20173;-81
2022/02/26 01:18:28;;;;;;;17.95;10.55;;;;;;;2.73;74.24;101859.63;5005247;28;20061;-80
2022/02/26 01:20:56;;;;;;;21.00;10.60;;;;;;;2.73;74.82;101864.28;5019424;28;20054;-80
2022/02/26 01:23:23;;;;;;;22.45;11.30;;;;;;;2.73;74.58;101869.78;5019966;28;20065;-81
2022/02/26 01:25:52;;;;;;;21.50;11.18;;;;;;;2.73;74.89;101873.38;5021062;28;20046;-82
2022/02/26 01:28:19;;;;;;;21.48;10.10;;;;;;;2.75;74.55;101867.63;5019936;28;20056;-80
2022/02/26 01:30:47;;;;;;;22.23;10.55;;;;;;;2.78;74.39;101873.53;5019636;28;20056;-81
2022/02/26 01:33:14;;;;;;;19.00;10.32;;;;;;;2.79;74.53;101885.38;5020059;28;20514;-81
2022/02/26 01:35:42;;;;;;;19.60;9.95;;;;;;;2.76;74.63;101889.44;5011045;28;20046;-82
2022/02/26 01:38:09;;;;;;;16.23;9.95;;;;;;;2.75;74.51;101885.00;5000227;28;20054;-82
2022/02/26 01:40:37;;;;;;;17.20;9.10;;;;;;;2.79;74.99;101885.38;5007573;28;20042;-82
2022/02/26 01:43:05;;;;;;;18.67;11.07;;;;;;;2.78;74.52;101887.28;5002221;28;20057;-81
2022/02/26 01:45:33;;;;;;;21.52;11.10;;;;;;;2.83;74.73;101892.09;5000251;28;20061;-81
2022/02/26 01:48:00;;;;;;;18.98;10.27;;;;;;;2.85;74.34;101889.97;5005776;28;20518;-80
2022/02/26 01:50:29;;;;;;;18.23;11.57;;;;;;;2.82;74.63;101887.69;5019303;28;20129;-82
2022/02/26 01:52:58;;;;;;;26.25;12.25;;;;;;;2.85;74.43;101890.81;5007456;28;20053;-82
2022/02/26 01:55:26;;;;;;;22.00;10.93;;;;;;;2.88;73.90;101880.41;5003897;28;20058;-81
2022/02/26 01:57:54;;;;;;;22.17;11.70;;;;;;;2.80;74.40;101881.56;5020062;28;20441;-83
2022/02/26 02:00:23;;;;;;;25.13;11.27;;;;;;;2.78;74.35;101881.78;5005854;28;20075;-82
2022/02/26 02:02:53;;;;;;;20.65;11.45;;;;;;;2.81;74.16;101881.34;5002077;28;20054;-82
2022/02/26 02:05:21;;;;;;;18.13;10.80;;;;;;;2.82;74.33;101885.78;5000194;28;20076;-82
2022/02/26 02:07:49;;;;;;;21.60;10.82;;;;;;;2.81;74.00;101884.09;5016036;28;20050;-82
2022/02/26 02:10:16;;;;;;;16.60;10.25;;;;;;;2.80;73.60;101889.81;5019497;28;20058;-81
2022/02/26 02:12:43;;;;;;;22.38;10.02;;;;;;;2.76;73.90;101894.09;5004706;28;20062;-80
2022/02/26 02:15:11;;;;;;;15.75;10.38;;;;;;;2.74;73.45;101888.81;5000897;28;20059;-82
2022/02/26 02:17:41;;;;;;;22.95;10.82;;;;;;;2.66;74.17;101897.34;5000003;28;20050;-82
2022/02/26 02:20:10;;;;;;;27.75;11.73;;;;;;;2.62;74.23;101894.25;5003288;28;20058;-82
2022/02/26 02:22:39;;;;;;;18.05;8.90;;;;;;;2.62;74.56;101887.88;5020104;28;20054;-81
2022/02/26 02:25:07;;;;;;;23.92;12.05;;;;;;;2.60;74.17;101884.50;5001646;28;20053;-81
2022/02/26 02:27:35;;;;;;;24.25;11.52;;;;;;;2.58;74.04;101894.88;5019459;28;20058;-82
2022/02/26 02:30:02;;;;;;;20.13;11.40;;;;;;;2.56;73.71;101892.38;5020361;28;20049;-82
2022/02/26 02:32:29;;;;;;;16.35;9.95;;;;;;;2.55;74.43;101884.34;5019859;28;20466;-82
2022/02/26 02:34:56;;;;;;;31.58;14.40;;;;;;;2.43;75.25;101884.25;5000695;28;20050;-82
2022/02/26 02:37:24;;;;;;;22.38;11.98;;;;;;;2.47;74.63;101892.88;5000583;28;20070;-81
2022/02/26 02:39:52;;;;;;;20.05;10.55;;;;;;;2.46;74.60;101897.56;5016744;28;20060;-81
2022/02/26 02:42:20;;;;;;;25.00;12.63;;;;;;;2.42;74.71;101897.16;5019102;28;20384;-81
2022/02/26 02:44:48;;;;;;;28.15;13.07;;;;;;;2.40;74.81;101895.69;5003504;28;20054;-82
2022/02/26 02:47:15;;;;;;;27.85;13.30;;;;;;;2.39;75.55;101905.00;4999973;28;20379;-81
2022/02/26 02:49:42;;;;;;;23.27;12.38;;;;;;;2.36;75.17;101906.31;5003869;28;20062;-81
2022/02/26 02:52:10;;;;;;;21.02;12.18;;;;;;;2.32;75.44;101909.72;5013476;28;20484;-81
2022/02/26 02:54:40;;;;;;;20.90;12.63;;;;;;;2.16;75.14;101914.72;5000985;28;20058;-82
2022/02/26 02:57:09;;;;;;;30.88;13.82;;;;;;;2.24;75.51;101919.91;5017598;28;20046;-82
2022/02/26 02:59:36;;;;;;;27.48;12.85;;;;;;;2.23;74.44;101915.50;5010292;28;20065;-82
2022/02/26 03:02:04;;;;;;;23.27;11.13;;;;;;;2.20;74.87;101917.84;5007400;28;20050;-82
2022/02/26 03:04:31;;;;;;;25.80;12.70;;;;;;;2.09;75.96;101913.91;5008987;28;20069;-82
2022/02/26 03:06:58;;;;;;;19.92;12.23;;;;;;;2.13;75.62;101906.06;5007864;28;20065;-81
2022/02/26 03:09:26;;;;;;;22.85;11.77;;;;;;;2.11;75.00;101905.44;5017495;28;20069;-79
2022/02/26 03:11:53;;;;;;;25.80;12.57;;;;;;;2.02;75.56;101911.22;5015624;28;20050;-81
2022/02/26 03:14:24;;;;;;;23.98;12.98;;;;;;;2.06;74.56;101922.63;5016069;28;20061;-80
2022/02/26 03:16:52;;;;;;;22.83;13.05;;;;;;;2.02;75.21;101927.69;5015125;28;20387;-80
2022/02/26 03:19:20;;;;;;;25.30;13.18;;;;;;;2.03;75.02;101923.88;5005184;28;20054;-80
2022/02/26 03:21:47;;;;;;;21.63;13.05;;;;;;;2.01;75.08;101916.91;5000934;28;20523;-79
2022/02/26 03:24:15;;;;;;;21.63;10.90;;;;;;;2.00;75.00;101918.84;5017006;28;20045;-81
2022/02/26 03:26:43;;;;;;;28.05;13.13;;;;;;;1.99;74.65;101919.88;5016320;28;20070;-81
2022/02/26 03:29:10;;;;;;;28.00;13.02;;;;;;;1.93;74.87;101919.94;5005865;28;20054;-79
2022/02/26 03:31:43;;;;;;;22.42;13.10;;;;;;;1.94;74.58;101927.97;4997023;28;20050;-81
2022/02/26 03:34:10;;;;;;;28.90;13.82;;;;;;;1.95;74.59;101928.78;4997001;28;20492;-80
2022/02/26 03:36:38;;;;;;;26.92;14.15;;;;;;;1.91;76.03;101922.91;5005453;28;20057;-80
2022/02/26 03:39:06;;;;;;;25.75;13.60;;;;;;;1.95;75.43;101935.16;5000403;28;20062;-80
2022/02/26 03:41:33;;;;;;;22.40;12.90;;;;;;;1.95;75.13;101935.16;5008310;28;20050;-80
2022/02/26 03:44:00;;;;;;;22.50;12.50;;;;;;;1.92;75.55;101930.09;4997438;28;20061;-80
2022/02/26 03:46:28;;;;;;;21.77;12.13;;;;;;;1.96;74.45;101933.25;5007427;28;20049;-80
2022/02/26 03:48:57;;;;;;;24.13;13.27;;;;;;;1.99;75.00;101939.13;4999815;28;20061;-81
2022/02/26 03:51:25;;;;;;;22.50;12.48;;;;;;;1.97;75.29;101940.41;4996784;28;20054;-82
2022/02/26 03:53:52;;;;;;;22.60;12.25;;;;;;;1.96;75.10;101942.31;5000577;28;20053;-81
2022/02/26 03:56:20;;;;;;;25.25;13.15;;;;;;;2.05;74.77;101942.06;5013331;28;20056;-81
2022/02/26 03:58:49;;;;;;;18.52;12.57;;;;;;;2.10;74.90;101934.84;5017086;28;20058;-80
2022/02/26 04:01:17;;;;;;;19.85;11.48;;;;;;;2.09;74.79;101941.38;5010733;28;20130;-80
2022/02/26 04:03:44;;;;;;;24.25;12.10;;;;;;;2.15;75.12;101945.16;4998043;28;20057;-80
2022/02/26 04:06:14;;;;;;;24.27;13.60;;;;;;;2.14;75.29;101948.97;5006997;28;20041;-80
2022/02/26 04:08:42;;;;;;;19.75;12.30;;;;;;;2.15;74.80;101946.00;5017436;28;20057;-80
2022/02/26 04:11:10;;;;;;;24.00;12.27;;;;;;;2.14;74.46;101940.72;5016101;28;20048;-80
2022/02/26 04:13:37;;;;;;;24.02;12.48;;;;;;;2.15;75.21;101945.16;5016824;28;20054;-80
2022/02/26 04:16:05;;;;;;;22.75;11.43;;;;;;;2.13;74.23;101955.53;5016543;28;20495;-81
2022/02/26 04:18:33;;;;;;;22.27;11.70;;;;;;;2.10;74.32;101954.09;5015099;28;20050;-80
2022/02/26 04:21:00;;;;;;;31.55;14.15;;;;;;;2.11;75.02;101955.75;5000756;28;20054;-80
2022/02/26 04:23:29;;;;;;;24.60;11.98;;;;;;;2.10;74.75;101958.72;5014469;28;20049;-80
2022/02/26 04:25:57;;;;;;;26.98;12.30;;;;;;;2.10;74.46;101958.72;5018088;28;20058;-80
2022/02/26 04:28:24;;;;;;;21.05;11.30;;;;;;;2.10;74.30;101969.72;5016749;28;20057;-79
2022/02/26 04:30:51;;;;;;;24.27;11.80;;;;;;;2.09;74.47;101979.03;5017669;28;20382;-80
2022/02/26 04:33:20;;;;;;;24.95;12.25;;;;;;;2.07;74.75;101975.66;5017512;28;20880;-80
2022/02/26 04:35:47;;;;;;;27.83;12.00;;;;;;;2.05;74.77;101980.53;5015944;28;20053;-81
2022/02/26 04:38:15;;;;;;;24.40;11.80;;;;;;;1.97;74.41;101990.72;5017083;28;20077;-80
2022/02/26 04:40:44;;;;;;;20.52;11.13;;;;;;;1.90;74.56;101987.16;5016619;28;20062;-81
2022/02/26 04:43:12;;;;;;;30.53;14.07;;;;;;;1.90;74.32;101992.66;5015054;28;20041;-80
2022/02/26 04:45:39;;;;;;;29.60;16.70;;;;;;;1.85;73.90;101994.38;5016594;28;20053;-80
2022/02/26 04:48:06;;;;;;;32.78;15.75;;;;;;;1.87;73.77;101997.75;5017546;28;20060;-79
2022/02/26 04:50:34;;;;;;;31.67;17.00;;;;;;;1.84;73.97;101985.28;5011503;28;20380;-80
2022/02/26 04:53:01;;;;;;;29.25;16.02;;;;;;;1.79;74.80;101985.94;5017765;28;20076;-80
2022/02/26 04:55:31;;;;;;;32.42;15.13;;;;;;;1.73;74.39;101975.84;5014367;28;20054;-80
2022/02/26 04:57:59;;;;;;;34.35;16.65;;;;;;;1.75;74.52;101978.38;5004992;28;20050;-81
2022/02/26 05:00:27;;;;;;;28.48;14.07;;;;;;;1.77;74.74;101977.09;5002301;28;20403;-80
2022/02/26 05:02:55;;;;;;;29.85;14.60;;;;;;;1.68;75.03;101972.91;5016419;28;20495;-81
2022/02/26 05:05:23;;;;;;;27.20;12.93;;;;;;;1.58;75.82;101967.88;5019465;28;20058;-81
2022/02/26 05:07:50;;;;;;;29.45;13.02;;;;;;;1.65;74.87;101967.84;5010358;28;20050;-81
2022/02/26 05:10:18;;;;;;;30.40;14.70;;;;;;;1.61;75.69;101977.56;5003438;28;20530;-81
2022/02/26 05:12:45;;;;;;;37.40;16.52;;;;;;;1.61;75.05;101972.91;5018906;28;20054;-81
2022/02/26 05:15:14;;;;;;;28.13;15.18;;;;;;;1.62;74.98;101974.63;5015610;28;20050;-81
2022/02/26 05:17:42;;;;;;;22.42;12.20;;;;;;;1.63;74.69;101978.19;5001088;28;20051;-79
2022/02/26 05:20:11;;;;;;;23.17;13.45;;;;;;;1.62;74.94;101980.13;5013408;28;20054;-80
2022/02/26 05:22:39;;;;;;;24.55;13.48;;;;;;;1.61;74.67;101986.66;5020756;28;20054;-80
2022/02/26 05:25:10;;;;;;;28.23;13.90;;;;;;;1.56;74.26;101991.97;5021481;28;20050;-80
2022/02/26 05:27:37;;;;;;;31.65;13.80;;;;;;;1.47;74.50;101986.91;5020875;28;20415;-80
2022/02/26 05:30:06;;;;;;;26.13;12.55;;;;;;;1.50;73.98;101987.34;5020830;28;20400;-81
2022/02/26 05:32:35;;;;;;;25.17;13.55;;;;;;;1.53;74.33;101981.41;5020340;28;20050;-80
2022/02/26 05:35:02;;;;;;;19.88;11.60;;;;;;;1.51;74.62;101994.53;5020058;28;20057;-81
2022/02/26 05:37:29;;;;;;;25.00;12.98;;;;;;;1.42;74.30;102002.13;5021221;28;20050;-80
2022/02/26 05:39:56;;;;;;;21.17;11.38;;;;;;;1.46;73.76;101991.56;5020629;28;20065;-80
2022/02/26 05:42:24;;;;;;;25.00;12.25;;;;;;;1.45;74.21;101995.41;5020603;28;20049;-79
2022/02/26 05:44:51;;;;;;;22.65;11.77;;;;;;;1.46;73.43;102002.56;5009804;28;20050;-80
2022/02/26 05:47:18;;;;;;;20.08;10.73;;;;;;;1.37;73.63;102006.59;5001921;28;20160;-80
2022/02/26 05:49:47;;;;;;;19.40;10.70;;;;;;;1.40;73.40;102011.66;5001333;28;20078;-79
2022/02/26 05:52:15;;;;;;;20.65;11.85;;;;;;;1.33;73.84;102013.59;5019026;28;20050;-80
2022/02/26 05:54:45;;;;;;;28.95;11.52;;;;;;;1.34;73.10;102024.31;5018916;28;20058;-79
2022/02/26 05:57:12;;;;;;;;;;;;;;;1.18;73.51;102030.28;5020610;28;20058;-79
2022/02/26 05:59:39;;;;;;;16.77;10.40;;;;;;;1.13;74.14;102030.91;5006602;28;19930;-81
2022/02/26 06:02:07;;;;;;;21.85;11.90;;;;;;;1.16;73.63;102029.66;5001915;28;20051;-81
2022/02/26 06:04:34;;;;;;;24.52;13.27;;;;;;;1.23;73.58;102046.13;5002573;28;20058;-81
2022/02/26 06:07:03;;;;;;;25.52;15.25;;;;;;;1.03;73.45;102049.72;5003100;28;20058;-81
2022/02/26 06:09:31;;;;;;;24.10;11.52;;;;;;;1.07;74.15;102059.22;5017316;28;20046;-81
2022/02/26 06:11:58;;;;;;;23.23;11.75;;;;;;;1.14;74.46;102068.28;5013580;28;20053;-80
2022/02/26 06:14:25;;;;;;;22.05;12.02;;;;;;;1.21;74.06;102077.34;5019883;28;20050;-81
2022/02/26 06:16:52;;;;;;;19.05;10.88;;;;;;;1.23;74.33;102073.56;5022176;28;20060;-81
2022/02/26 06:19:20;;;;;;;20.95;10.40;;;;;;;1.32;74.04;102073.09;5021126;28;20418;-80
2022/02/26 06:21:48;;;;;;;24.00;10.65;;;;;;;1.39;74.27;102073.13;5016338;28;20069;-81
2022/02/26 06:24:17;;;;;;;23.65;11.43;;;;;;;1.44;73.49;102087.03;5013299;28;20046;-81
2022/02/26 06:26:45;;;;;;;31.42;12.35;;;;;;;1.44;73.44;102092.53;5014900;28;20053;-81
2022/02/26 06:29:12;;;;;;;21.75;11.40;;;;;;;1.48;73.74;102093.78;5020426;28;20076;-81
2022/02/26 06:31:40;;;;;;;30.58;12.40;;;;;;;1.36;73.67;102104.56;5008429;28;20054;-81
2022/02/26 06:34:07;;;;;;;22.23;11.23;;;;;;;1.34;73.34;102098.44;5005181;28;20046;-80
2022/02/26 06:36:36;;;;;;;25.98;11.20;;;;;;;1.47;72.97;102111.34;5018475;28;20050;-80
2022/02/26 06:39:04;;;;;;;51.33;13.60;;;;;;;1.53;73.19;102107.72;5001510;28;20484;-79
2022/02/26 06:41:34;;;;;;;23.23;10.70;;;;;;;1.55;73.26;102115.75;5017774;28;20050;-79
2022/02/26 06:44:01;;;;;;;30.50;11.25;;;;;;;1.63;73.31;102116.38;5020600;28;20050;-80
2022/02/26 06:46:29;;;;;;;20.13;9.63;;;;;;;1.71;73.26;102114.47;5014746;28;20135;-80
2022/02/26 06:48:57;;;;;;;22.77;10.30;;;;;;;1.82;72.54;102122.03;5000734;28;20050;-80
2022/02/26 06:51:24;;;;;;;26.00;10.57;;;;;;;1.95;72.88;102133.00;5000923;28;20054;-79
2022/02/26 06:53:52;;;;;;;22.55;9.70;;;;;;;1.96;72.48;102142.09;5004290;28;20054;-79
2022/02/26 06:56:19;;;;;;;22.77;9.85;;;;;;;2.08;72.00;102136.75;5010317;28;20538;-78
2022/02/26 06:58:48;;;;;;;18.90;8.95;;;;;;;2.23;71.63;102140.09;5006123;28;20054;-80
2022/02/26 07:01:15;;;;;;;18.05;9.10;;;;;;;2.38;71.62;102146.16;5002019;28;20393;-80
2022/02/26 07:03:43;;;;;;;20.30;10.13;;;;;;;2.52;71.11;102144.19;5008067;28;20054;-80
2022/02/26 07:06:10;;;;;;;26.85;13.30;;;;;;;2.76;71.14;102150.81;5011896;28;20058;-80
2022/02/26 07:08:38;;;;;;;23.15;11.40;;;;;;;2.62;70.38;102149.19;5013796;28;20056;-81
2022/02/26 07:11:05;;;;;;;19.45;9.73;;;;;;;2.80;70.82;102151.22;5020703;28;20061;-80
2022/02/26 07:13:33;;;;;;;24.65;11.10;;;;;;;3.01;70.70;102150.88;5015457;28;20050;-81
2022/02/26 07:16:02;;;;;;;25.55;11.60;;;;;;;3.10;71.28;102162.44;5005779;28;20057;-80
2022/02/26 07:18:29;;;;;;;21.97;11.03;;;;;;;3.51;70.71;102162.97;5006973;28;20065;-81
2022/02/26 07:20:56;;;;;;;19.45;9.73;;;;;;;3.77;69.28;102159.97;5003321;28;20381;-79
2022/02/26 07:23:24;;;;;;;25.05;10.25;;;;;;;4.16;68.45;102152.34;5016657;28;20053;-81
2022/02/26 07:25:51;;;;;;;19.10;9.07;;;;;;;4.50;67.59;102154.69;5015242;28;20058;-81
2022/02/26 07:28:19;;;;;;;16.48;8.80;;;;;;;4.69;66.88;102145.31;5011080;28;20045;-82
2022/02/26 07:30:46;;;;;;;19.95;11.55;;;;;;;4.86;66.09;102156.53;5022557;28;20400;-82
2022/02/26 07:33:23;;;;;;;24.13;12.00;;;;;;;5.42;64.15;102146.94;5017441;28;20053;-82
2022/02/26 07:35:52;;;;;;;25.77;14.50;;;;;;;5.96;63.55;102157.88;5017246;28;20495;-82
2022/02/26 07:38:20;;;;;;;23.25;13.00;;;;;;;6.22;62.06;102159.31;5023653;28;20067;-81
2022/02/26 07:40:50;;;;;;;17.60;9.98;;;;;;;6.71;60.96;102159.75;5023996;28;20050;-80
2022/02/26 07:43:17;;;;;;;;;;;;;;;6.46;59.16;102162.84;5023370;28;20049;-82
2022/02/26 07:45:44;;;;;;;19.45;8.70;;;;;;;6.32;60.60;102155.94;5003965;28;19926;-81
2022/02/26 07:48:11;;;;;;;17.88;9.30;;;;;;;6.63;59.95;102159.31;5016527;28;20049;-81
2022/02/26 07:50:41;;;;;;;15.60;7.22;;;;;;;7.13;58.87;102158.59;5018193;28;20068;-81
2022/02/26 07:53:08;;;;;;;15.20;8.40;;;;;;;7.49;58.03;102160.03;5003636;28;20062;-81
2022/02/26 07:55:37;;;;;;;13.43;7.22;;;;;;;8.01;57.57;102167.22;5015940;28;20042;-82
2022/02/26 07:58:05;;;;;;;17.33;8.27;;;;;;;8.88;54.50;102165.59;5025081;28;20056;-81
2022/02/26 08:00:33;;;;;;;17.27;7.75;;;;;;;10.32;52.11;102153.63;5022679;28;20042;-81
2022/02/26 08:03:04;;;;;;;14.40;8.20;;;;;;;11.74;48.29;102156.13;5022748;28;20068;-81
2022/02/26 08:05:34;;;;;;;13.85;7.72;;;;;;;12.28;46.18;102157.41;5017162;28;20050;-81
2022/02/26 08:08:03;;;;;;;12.88;6.85;;;;;;;13.20;44.30;102148.53;5006709;28;20069;-82
2022/02/26 08:10:31;;;;;;;13.63;8.10;;;;;;;14.34;41.90;102144.38;5022900;28;20073;-81
2022/02/26 08:12:59;;;;;;;14.43;7.80;;;;;;;15.50;39.34;102144.97;5021871;28;20054;-82
2022/02/26 08:15:28;;;;;;;14.48;8.88;;;;;;;15.78;38.50;102147.88;5009922;28;20054;-82
2022/02/26 08:17:56;;;;;;;16.38;9.82;;;;;;;16.16;37.22;102150.53;5008949;28;20065;-81
2022/02/26 08:20:24;;;;;;;13.30;7.03;;;;;;;17.33;35.28;102143.47;5022468;28;20110;-82
2022/02/26 08:22:53;;;;;;;9.18;6.85;;;;;;;18.31;33.50;102147.34;5008758;28;20054;-82
2022/02/26 08:25:23;;;;;;;11.95;7.05;;;;;;;18.99;32.50;102148.69;5008369;28;20046;-83
2022/02/26 08:27:51;;;;;;;12.90;8.43;;;;;;;19.86;31.28;102154.31;5021675;28;20077;-82
2022/02/26 08:30:22;;;;;;;11.75;8.57;;;;;;;20.58;29.52;102148.88;5002673;28;20050;-81
2022/02/26 08:32:50;;;;;;;13.43;9.40;;;;;;;21.32;28.67;102140.00;5014062;28;20058;-82
2022/02/26 08:35:18;;;;;;;12.20;8.33;;;;;;;21.89;27.71;102144.94;5016971;28;20045;-83
2022/02/26 08:37:46;;;;;;;11.25;7.60;;;;;;;22.51;26.52;102145.84;5019985;28;20050;-82
2022/02/26 08:40:15;;;;;;;11.30;7.87;;;;;;;22.93;25.89;102150.38;5007437;28;20054;-82
2022/02/26 08:42:45;;;;;;;12.02;7.65;;;;;;;23.68;25.46;102142.06;5025479;28;20074;-81
2022/02/26 08:45:14;;;;;;;10.52;7.57;;;;;;;24.15;24.49;102149.06;5015955;28;20050;-81
2022/02/26 08:47:42;;;;;;;11.05;8.20;;;;;;;24.37;24.65;102161.00;5024123;28;20606;-82
2022/02/26 08:50:13;;;;;;;12.15;8.32;;;;;;;24.81;23.77;102158.84;5007704;28;20055;-83
2022/02/26 08:52:40;;;;;;;10.93;7.80;;;;;;;25.45;23.03;102162.31;5019144;28;20073;-82
2022/02/26 08:55:09;;;;;;;14.90;9.90;;;;;;;25.79;23.03;102168.28;5024692;28;20054;-82
2022/02/26 08:57:38;;;;;;;14.65;9.23;;;;;;;25.94;22.17;102175.13;5012366;28;20054;-80
2022/02/26 09:00:09;;;;;;;;;;;;;;;26.12;21.96;102169.72;5012659;28;20050;-81
2022/02/26 09:02:36;;;;;;;12.77;8.43;;;;;;;26.72;21.78;102161.34;5023201;28;19927;-84
2022/02/26 09:05:05;;;;;;;11.07;8.05;;;;;;;26.92;21.42;102166.94;5013495;28;20511;-83
2022/02/26 09:07:32;;;;;;;12.20;8.60;;;;;;;27.14;21.14;102168.09;5019118;28;20054;-84
2022/02/26 09:10:02;;;;;;;12.65;9.23;;;;;;;27.67;20.01;102167.94;5012864;28;20060;-84
2022/02/26 09:12:29;;;;;;;13.85;10.20;;;;;;;28.12;19.49;102170.91;5024244;28;20065;-84
2022/02/26 09:14:57;;;;;;;14.60;10.15;;;;;;;28.47;19.34;102169.56;5025259;28;20048;-83
2022/02/26 09:17:25;;;;;;;14.52;10.07;;;;;;;28.61;19.45;102184.03;5020186;28;20046;-84
2022/02/26 09:19:53;;;;;;;14.30;10.30;;;;;;;28.83;18.75;102173.56;5004608;28;20113;-84
2022/02/26 09:22:21;;;;;;;16.15;10.80;;;;;;;28.36;19.43;102174.41;5021206;28;20049;-85
2022/02/26 09:24:48;;;;;;;13.68;10.15;;;;;;;28.91;18.80;102185.88;5016077;28;20057;-84
2022/02/26 09:27:15;;;;;;;15.68;10.80;;;;;;;29.42;18.28;102199.31;5018004;28;20058;-84
2022/02/26 09:29:43;;;;;;;15.15;11.00;;;;;;;29.48;18.38;102194.00;5005510;28;20420;-84
2022/02/26 09:32:10;;;;;;;14.18;10.68;;;;;;;29.55;18.37;102183.38;5019875;28;20057;-86
2022/02/26 09:34:39;;;;;;;13.75;11.00;;;;;;;29.63;18.56;102189.97;5015574;28;20046;-84
2022/02/26 09:37:06;;;;;;;13.43;10.05;;;;;;;29.71;18.58;102191.66;5013618;28;20507;-83
2022/02/26 09:39:33;;;;;;;17.00;13.05;;;;;;;29.93;18.46;102201.16;5019108;28;20049;-82
2022/02/26 09:42:02;;;;;;;17.20;13.38;;;;;;;29.89;18.33;102190.88;5025740;28;20057;-82
2022/02/26 09:44:30;;;;;;;17.15;12.98;;;;;;;30.19;18.04;102196.25;5023797;28;20054;-84
2022/02/26 09:46:58;;;;;;;16.40;13.15;;;;;;;30.60;17.61;102201.66;5022473;28;20046;-84
2022/02/26 09:49:26;;;;;;;19.42;14.15;;;;;;;30.73;17.26;102202.84;5022804;28;20058;-85
2022/02/26 09:51:56;;;;;;;20.38;15.30;;;;;;;31.10;17.40;102189.25;5020278;28;20057;-84
2022/02/26 09:54:23;;;;;;;15.63;13.15;;;;;;;30.89;17.68;102195.88;5020532;28;20058;-84
2022/02/26 09:56:50;;;;;;;18.63;14.52;;;;;;;30.65;17.58;102188.91;5019844;28;20496;-84
2022/02/26 09:59:18;;;;;;;15.23;13.32;;;;;;;30.98;17.05;102192.59;5021700;28;20053;-84
2022/02/26 10:01:59;;;;;;;17.13;14.45;;;;;;;31.57;17.02;102189.94;5018281;28;20403;-85
2022/02/26 10:04:27;;;;;;;18.10;14.65;;;;;;;31.59;16.73;102187.44;5014150;28;20438;-85
2022/02/26 10:07:13;;;;;;;15.68;12.93;;;;;;;32.16;16.13;102192.88;5022257;28;20057;-85
2022/02/26 10:09:42;;;;;;;16.27;13.48;;;;;;;32.31;16.40;102199.34;5018029;28;20061;-84
2022/02/26 10:12:21;;;;;;;14.60;12.05;;;;;;;32.14;16.03;102188.78;5017417;28;20058;-83
2022/02/26 10:14:50;;;;;;;15.93;11.68;;;;;;;32.65;15.70;102192.88;5024390;28;20079;-84
2022/02/26 10:17:32;;;;;;;14.77;10.05;;;;;;;32.98;15.81;102199.16;5021905;28;20086;-84
2022/02/26 10:20:12;;;;;;;15.82;11.63;;;;;;;32.43;15.82;102188.56;5023968;28;20057;-84
2022/02/26 10:22:43;;;;;;;14.45;11.32;;;;;;;33.01;14.90;102195.44;5017293;28;20484;-84
2022/02/26 10:25:13;;;;;;;15.90;10.05;;;;;;;33.09;14.58;102205.66;5008226;28;20046;-84
2022/02/26 10:27:43;;;;;;;12.95;9.20;;;;;;;33.38;14.37;102196.66;5023297;28;20471;-84
2022/02/26 10:30:15;;;;;;;12.85;9.18;;;;;;;33.22;14.88;102190.66;5012736;28;20050;-84
2022/02/26 10:32:43;;;;;;;14.15;8.13;;;;;;;33.28;13.87;102186.88;5020601;28;20057;-84
2022/02/26 10:35:12;;;;;;;11.40;7.38;;;;;;;33.31;14.35;102196.75;5015427;28;20054;-84
2022/02/26 10:37:41;;;;;;;11.68;6.82;;;;;;;33.41;13.88;102198.69;5016639;28;20046;-84
2022/02/26 10:40:10;;;;;;;12.68;7.75;;;;;;;33.57;13.59;102195.97;5008804;28;20047;-84
2022/02/26 10:42:42;;;;;;;9.88;6.55;;;;;;;33.68;13.37;102192.16;5014085;28;20050;-84
2022/02/26 10:45:12;;;;;;;9.68;6.30;;;;;;;33.60;14.08;102202.16;5011153;28;20050;-85
2022/02/26 10:47:42;;;;;;;9.57;5.47;;;;;;;33.54;13.19;102202.66;5012055;28;20408;-84
2022/02/26 10:50:18;;;;;;;10.93;5.68;;;;;;;33.46;13.74;102198.22;5011010;28;20057;-84
2022/02/26 10:52:59;;;;;;;10.82;6.50;;;;;;;33.07;13.68;102193.72;5005377;28;20069;-83
2022/02/26 10:55:49;;;;;;;10.27;5.75;;;;;;;33.76;13.24;102190.81;5013971;28;20053;-84
2022/02/26 10:58:19;;;;;;;11.05;4.97;;;;;;;34.11;12.64;102192.34;5013549;28;20077;-82
2022/02/26 11:00:46;;;;;;;;;;;;;;;33.85;12.84;102190.25;5005254;28;20058;-82
2022/02/26 11:03:13;;;;;;;7.80;4.20;;;;;;;34.11;13.03;102191.53;5008117;28;19929;-83
2022/02/26 11:05:41;;;;;;;8.43;4.70;;;;;;;34.23;12.25;102193.00;5005311;28;20543;-83
2022/02/26 11:08:12;;;;;;;10.80;4.28;;;;;;;34.24;11.57;102192.59;5012599;28;20050;-80
2022/02/26 11:10:41;;;;;;;9.20;3.72;;;;;;;33.84;12.25;102189.47;5024484;28;20057;-81
2022/02/26 11:13:09;;;;;;;9.38;3.85;;;;;;;32.13;13.38;102190.84;5031428;28;20048;-80
2022/02/26 11:15:39;;;;;;;9.73;3.97;;;;;;;32.97;13.62;102186.00;5005535;28;20042;-81
2022/02/26 11:18:08;;;;;;;8.27;3.90;;;;;;;33.62;12.51;102176.56;5008729;28;20054;-80
2022/02/26 11:20:35;;;;;;;9.32;3.83;;;;;;;33.59;12.85;102181.13;5013098;28;20407;-81
2022/02/26 11:23:03;;;;;;;8.35;3.53;;;;;;;33.35;12.31;102185.97;5003359;28;20054;-81
2022/02/26 11:25:31;;;;;;;8.23;3.00;;;;;;;33.93;12.20;102186.81;5016304;28;20046;-82
2022/02/26 11:27:58;;;;;;;;;;;;;;;33.39;13.20;102175.22;5015774;28;20411;-82